Fort Stockton Pecos County Airport
KFST : rendu visible

Aérodrome :











RETROUVEZ-NOUS SUR...

 
LOGIN :

S'inscrire | Disclaimer

   EN    FR    IT 

 









Légende :    VFR   VFR Marginal   IFR   IFR Intensif   IFR Très Intensif
Visi : 
Plafond : 
>= 8 km
>= 3000ft
5 à 8 km
1000 à 3000 ft
1500m à 5 km
500 à 1000 ft
800 à 1500m
200 à 500 ft
< 800m
< 200 ft
Symboles :   Orages  Brouillard  Fortes neiges  Fortes précipitations  Vent > 20 kt






- Altitude de l'aérodrome : 3011 ft


KFST - Fort Stockton Pecos County

DERNIER METAR :
  • 221253Z AUTO 25007KT 10SM CLR 07/06 A3013 RMK AO2 SLP176 T00670056

METARs EXPIRÉS :
  • 221153Z AUTO 26004KT 10SM CLR 07/06 A3012 RMK AO2 SLP168 T00670056 10111 20067 58002
  • 221053Z AUTO 25004KT 10SM SCT010 08/06 A3012 RMK AO2 SLP167 T00780061

TAF KFST
Valide du 22 à 12h jusqu'au 23 à 12h UTC


221123Z 2212/2312 32008KT P6SM SCT010
FM221800 35006KT P6SM FEW200



MET'MAP, la Météo Aéronautique d'un coup d'oeil ! - Copyright ORBIFLY Décembre 2007 - Disclaimer

ORBIFLY MET'MAP TEAM :

Programmation & Développement : Alexandra Zaïnal
Conception & Développement : Baudouin d'Aumeries
Co-Programmation & Développement : Marc-Olivier Méhu
Soutien technique & logistique : Manuel Goepfert

Contact : metmap@orbifly.com




SOURCES & CREDITS :

   NOAA       Earth
Advisory